createdAt,value
2019-06-26T00:01:43.184Z,3.30
2019-06-26T00:04:09.182Z,3.80
2019-06-26T00:06:35.236Z,3.87
2019-06-26T00:09:01.140Z,3.83
2019-06-26T00:11:27.162Z,3.23
2019-06-26T00:13:53.224Z,3.77
2019-06-26T00:16:19.108Z,4.43
2019-06-26T00:18:45.324Z,3.80
2019-06-26T00:21:11.592Z,3.80
2019-06-26T00:23:37.759Z,3.90
2019-06-26T00:26:03.759Z,3.73
2019-06-26T00:28:29.707Z,3.13
2019-06-26T00:30:55.876Z,3.60
2019-06-26T00:33:21.854Z,3.70
2019-06-26T00:35:47.832Z,3.50
2019-06-26T00:38:13.824Z,3.60
2019-06-26T00:40:39.736Z,3.43
2019-06-26T00:43:05.689Z,2.83
2019-06-26T00:45:31.804Z,3.03
2019-06-26T00:47:57.719Z,3.43
2019-06-26T00:50:23.647Z,2.83
2019-06-26T00:52:49.671Z,2.77
2019-06-26T00:55:15.776Z,3.10
2019-06-26T00:57:41.949Z,2.70
2019-06-26T01:00:09.265Z,2.83
2019-06-26T01:02:35.384Z,2.50
2019-06-26T01:05:03.218Z,2.83
2019-06-26T01:07:29.250Z,2.50
2019-06-26T01:09:55.160Z,2.43
2019-06-26T01:12:21.176Z,1.90
2019-06-26T01:14:47.191Z,2.53
2019-06-26T01:17:13.115Z,2.70
2019-06-26T01:19:39.258Z,1.80
2019-06-26T01:22:05.660Z,2.30
2019-06-26T01:24:31.912Z,1.90
2019-06-26T01:26:57.990Z,1.90
2019-06-26T01:29:23.964Z,2.30
2019-06-26T01:31:49.978Z,2.50
2019-06-26T01:34:16.032Z,2.93
2019-06-26T01:36:41.943Z,2.70
2019-06-26T01:39:07.966Z,2.90
2019-06-26T01:41:34.105Z,2.77
2019-06-26T01:44:13.550Z,2.80
2019-06-26T01:46:27.831Z,2.33
2019-06-26T01:48:53.888Z,3.00
2019-06-26T01:51:19.988Z,3.03
2019-06-26T01:53:45.912Z,3.00
2019-06-26T01:56:12.039Z,3.43
2019-06-26T01:58:38.041Z,3.90
2019-06-26T02:01:04.070Z,2.90
2019-06-26T02:03:30.239Z,3.20
2019-06-26T02:05:56.339Z,3.00
2019-06-26T02:08:22.237Z,2.80
2019-06-26T02:10:48.182Z,2.87
2019-06-26T02:13:14.104Z,2.73
2019-06-26T02:15:40.000Z,2.67
2019-06-26T02:18:07.953Z,2.57
2019-06-26T02:20:34.067Z,3.17
2019-06-26T02:23:00.086Z,3.80
2019-06-26T02:25:26.137Z,3.80
2019-06-26T02:27:52.255Z,4.23
2019-06-26T02:30:18.351Z,5.23
2019-06-26T02:32:44.306Z,5.63
2019-06-26T02:35:10.897Z,4.93
2019-06-26T02:37:36.825Z,4.77
2019-06-26T02:40:04.673Z,5.07
2019-06-26T02:42:30.684Z,4.83
2019-06-26T02:44:56.809Z,5.53
2019-06-26T02:47:22.850Z,4.90
2019-06-26T02:49:48.960Z,4.30
2019-06-26T02:52:14.966Z,4.93
2019-06-26T02:54:41.011Z,4.40
2019-06-26T02:57:06.913Z,4.03
2019-06-26T02:59:32.825Z,3.77
2019-06-26T03:01:58.795Z,3.70
2019-06-26T03:04:24.899Z,3.00
2019-06-26T03:06:50.791Z,3.90
2019-06-26T03:09:16.737Z,3.87
2019-06-26T03:11:42.848Z,4.20
2019-06-26T03:14:08.746Z,4.30
2019-06-26T03:16:34.906Z,4.53
2019-06-26T03:19:00.808Z,3.83
2019-06-26T03:21:26.700Z,3.93
2019-06-26T03:23:52.761Z,3.67
2019-06-26T03:26:18.945Z,3.60
2019-06-26T03:28:44.860Z,3.67
2019-06-26T03:31:10.784Z,4.23
2019-06-26T03:33:36.767Z,3.87
2019-06-26T03:36:02.974Z,4.40
2019-06-26T03:38:28.970Z,4.30
2019-06-26T03:40:54.863Z,4.10
2019-06-26T03:43:20.771Z,4.77
2019-06-26T03:45:46.801Z,4.47
2019-06-26T03:48:12.691Z,4.40
2019-06-26T03:50:38.703Z,4.20
2019-06-26T03:53:04.855Z,4.37
2019-06-26T03:55:30.983Z,4.77
2019-06-26T03:57:56.981Z,4.80
2019-06-26T04:00:29.755Z,4.83
2019-06-26T04:02:55.676Z,4.70
2019-06-26T04:05:21.608Z,5.33
2019-06-26T04:07:47.517Z,4.33
2019-06-26T04:10:14.237Z,5.10
2019-06-26T04:12:40.134Z,5.13
2019-06-26T04:15:06.563Z,5.33
2019-06-26T04:17:32.487Z,6.83
2019-06-26T04:19:58.500Z,5.90
2019-06-26T04:22:24.640Z,6.10
2019-06-26T04:24:50.675Z,5.77
2019-06-26T04:27:16.606Z,6.77
2019-06-26T04:29:42.881Z,5.97
2019-06-26T04:32:08.841Z,6.10
2019-06-26T04:34:34.745Z,5.30
2019-06-26T04:37:00.910Z,5.53
2019-06-26T04:39:26.834Z,5.80
2019-06-26T04:41:52.730Z,5.80
2019-06-26T04:44:18.669Z,5.63
2019-06-26T04:46:44.583Z,5.60
2019-06-26T04:49:10.488Z,5.23
2019-06-26T04:51:36.505Z,5.60
2019-06-26T04:54:02.598Z,5.23
2019-06-26T04:56:28.633Z,5.33
2019-06-26T04:58:54.645Z,4.30
2019-06-26T05:01:20.768Z,4.17
2019-06-26T05:03:46.645Z,4.00
2019-06-26T05:06:12.699Z,4.37
2019-06-26T05:08:38.619Z,4.57
2019-06-26T05:11:04.516Z,4.70
2019-06-26T05:13:30.486Z,3.97
2019-06-26T05:15:56.359Z,4.27
2019-06-26T05:18:22.243Z,3.93
2019-06-26T05:20:48.202Z,3.80
2019-06-26T05:23:14.312Z,3.07
2019-06-26T05:25:41.802Z,3.47
2019-06-26T05:28:08.550Z,3.00
2019-06-26T05:30:34.777Z,2.57
2019-06-26T05:33:00.792Z,2.70
2019-06-26T05:35:26.736Z,2.93
2019-06-26T05:37:52.742Z,2.80
2019-06-26T05:40:19.062Z,2.60
2019-06-26T05:42:45.012Z,2.50
2019-06-26T05:45:11.709Z,2.57
2019-06-26T05:47:37.726Z,2.43
2019-06-26T05:50:06.084Z,2.50
2019-06-26T05:52:31.975Z,2.33
2019-06-26T05:54:57.886Z,2.67
2019-06-26T05:57:23.834Z,2.53
2019-06-26T05:59:49.849Z,2.70
2019-06-26T06:02:15.755Z,3.10
2019-06-26T06:04:41.685Z,2.70
2019-06-26T06:07:07.814Z,2.90
2019-06-26T06:09:34.010Z,3.10
2019-06-26T06:11:59.961Z,3.27
2019-06-26T06:14:25.886Z,2.97
2019-06-26T06:16:51.777Z,3.00
2019-06-26T06:19:17.734Z,3.07
2019-06-26T06:21:43.682Z,3.07
2019-06-26T06:24:09.564Z,3.20
2019-06-26T06:26:35.609Z,3.27
2019-06-26T06:29:02.293Z,2.90
2019-06-26T06:31:28.358Z,2.97
2019-06-26T06:33:54.403Z,3.20
2019-06-26T06:36:20.305Z,2.93
2019-06-26T06:38:46.325Z,3.10
2019-06-26T06:41:12.220Z,2.80
2019-06-26T06:43:38.247Z,3.37
2019-06-26T06:46:04.243Z,3.10
2019-06-26T06:48:30.194Z,3.00
2019-06-26T06:50:56.229Z,2.77
2019-06-26T06:53:22.216Z,2.60
2019-06-26T06:55:48.199Z,2.20
2019-06-26T06:58:14.239Z,2.20
2019-06-26T07:00:40.273Z,1.70
2019-06-26T07:03:06.363Z,2.00
2019-06-26T07:05:32.372Z,1.67
2019-06-26T07:07:58.300Z,1.60
2019-06-26T07:10:24.301Z,1.77
2019-06-26T07:12:50.211Z,1.40
2019-06-26T07:15:16.369Z,1.67
2019-06-26T07:17:42.473Z,1.77
2019-06-26T07:20:08.871Z,2.07
2019-06-26T07:22:34.806Z,1.90
2019-06-26T07:25:00.803Z,1.70
2019-06-26T07:27:26.897Z,2.00
2019-06-26T07:29:52.854Z,1.60
2019-06-26T07:32:18.743Z,1.73
2019-06-26T07:34:44.730Z,1.83
2019-06-26T07:37:10.753Z,1.90
2019-06-26T07:39:36.759Z,2.20
2019-06-26T07:42:02.875Z,2.07
2019-06-26T07:44:28.838Z,1.90
2019-06-26T07:46:54.732Z,2.10
2019-06-26T07:49:20.628Z,2.03
2019-06-26T07:51:46.952Z,2.30
2019-06-26T07:54:12.874Z,2.30
2019-06-26T07:56:38.791Z,2.73
2019-06-26T07:59:04.718Z,3.20
2019-06-26T08:01:30.830Z,2.90
2019-06-26T08:03:56.839Z,2.60
2019-06-26T08:06:22.980Z,2.10
2019-06-26T08:08:48.974Z,2.30
2019-06-26T08:11:14.979Z,2.13
2019-06-26T08:13:40.891Z,2.00
2019-06-26T08:16:06.905Z,2.00
2019-06-26T08:18:32.956Z,1.80
2019-06-26T08:21:11.680Z,1.90
2019-06-26T08:23:26.980Z,1.63
2019-06-26T08:25:52.994Z,2.03
2019-06-26T08:28:19.133Z,1.93
2019-06-26T08:30:45.041Z,2.00
2019-06-26T08:33:10.918Z,1.70
2019-06-26T08:35:36.838Z,1.90
2019-06-26T08:38:11.075Z,1.50
2019-06-26T08:40:30.842Z,1.87
2019-06-26T08:42:57.741Z,1.40
2019-06-26T08:45:23.654Z,1.57
2019-06-26T08:47:49.705Z,1.40
2019-06-26T08:50:16.255Z,1.53
2019-06-26T08:52:42.155Z,1.90
2019-06-26T08:55:09.009Z,1.80
2019-06-26T08:57:35.115Z,1.43
2019-06-26T09:00:03.336Z,1.50
2019-06-26T09:02:29.260Z,2.03
2019-06-26T09:04:55.194Z,1.73
2019-06-26T09:07:21.105Z,1.97
2019-06-26T09:09:47.157Z,1.73
2019-06-26T09:12:13.060Z,1.60
2019-06-26T09:14:38.978Z,1.80
2019-06-26T09:17:05.004Z,1.80
2019-06-26T09:19:31.004Z,1.60
2019-06-26T09:21:57.013Z,1.37
2019-06-26T09:24:22.944Z,1.43
2019-06-26T09:26:48.836Z,1.40
2019-06-26T09:29:15.098Z,1.50
2019-06-26T09:31:41.025Z,1.50
2019-06-26T09:34:06.924Z,1.43
2019-06-26T09:36:32.929Z,1.30
2019-06-26T09:38:59.101Z,1.40
2019-06-26T09:41:25.017Z,1.10
2019-06-26T09:43:51.035Z,1.30
2019-06-26T09:46:17.066Z,1.10
2019-06-26T09:48:52.643Z,1.20
2019-06-26T09:51:10.761Z,1.07
2019-06-26T09:53:47.105Z,0.90
2019-06-26T09:56:04.795Z,1.10
2019-06-26T09:58:30.835Z,1.10
2019-06-26T10:00:56.769Z,1.27
2019-06-26T10:03:22.835Z,1.20
2019-06-26T10:05:48.727Z,1.30
2019-06-26T10:08:14.855Z,1.33
2019-06-26T10:10:41.003Z,1.37
2019-06-26T10:13:06.891Z,1.40
2019-06-26T10:15:32.959Z,1.10
2019-06-26T10:17:58.906Z,1.30
2019-06-26T10:20:25.086Z,1.33
2019-06-26T10:22:51.233Z,1.10
2019-06-26T10:25:17.378Z,1.20
2019-06-26T10:27:43.479Z,1.33
2019-06-26T10:30:10.692Z,0.90
2019-06-26T10:32:36.706Z,0.90
2019-06-26T10:35:04.222Z,0.70
2019-06-26T10:37:30.299Z,1.00
2019-06-26T10:39:56.402Z,0.87
2019-06-26T10:42:22.430Z,1.10
2019-06-26T10:44:48.547Z,1.00
2019-06-26T10:47:14.679Z,1.00
2019-06-26T10:49:40.578Z,0.83
2019-06-26T10:52:06.699Z,0.87
2019-06-26T10:54:32.749Z,0.90
2019-06-26T10:56:58.854Z,0.93
2019-06-26T10:59:24.975Z,0.60
2019-06-26T11:01:51.014Z,0.70
2019-06-26T11:04:17.107Z,0.80
2019-06-26T11:06:43.233Z,0.90
2019-06-26T11:09:09.369Z,0.77
2019-06-26T11:11:35.681Z,0.80
2019-06-26T11:14:02.071Z,0.70
2019-06-26T11:16:28.256Z,0.90
2019-06-26T11:18:54.158Z,0.80
2019-06-26T11:21:20.204Z,0.90
2019-06-26T11:23:46.142Z,0.87
2019-06-26T11:26:12.156Z,1.00
2019-06-26T11:28:38.142Z,1.00
2019-06-26T11:31:04.067Z,0.83
2019-06-26T11:33:30.112Z,1.07
2019-06-26T11:35:56.172Z,0.63
2019-06-26T11:38:22.094Z,0.80
2019-06-26T11:40:48.171Z,0.80
2019-06-26T11:43:14.393Z,1.00
2019-06-26T11:45:40.432Z,1.00
2019-06-26T11:48:06.454Z,1.10
2019-06-26T11:50:32.454Z,1.43
2019-06-26T11:52:58.484Z,1.20
2019-06-26T11:55:24.502Z,1.20
2019-06-26T11:57:50.702Z,1.10
2019-06-26T12:00:19.941Z,1.03
2019-06-26T12:02:45.859Z,1.10
2019-06-26T12:05:12.580Z,1.00
2019-06-26T12:07:38.699Z,1.00
2019-06-26T12:10:07.134Z,1.00
2019-06-26T12:12:33.421Z,1.00
2019-06-26T12:14:59.437Z,1.07
2019-06-26T12:17:25.450Z,1.10
2019-06-26T12:19:51.532Z,1.10
2019-06-26T12:22:17.573Z,0.97
2019-06-26T12:24:43.471Z,1.10
2019-06-26T12:27:09.663Z,0.87
2019-06-26T12:29:35.579Z,1.10
2019-06-26T12:32:01.471Z,1.10
2019-06-26T12:34:27.591Z,0.80
2019-06-26T12:36:53.500Z,1.00
2019-06-26T12:39:19.616Z,0.90
2019-06-26T12:41:45.877Z,1.07
2019-06-26T12:44:11.897Z,1.10
2019-06-26T12:46:37.798Z,0.80
2019-06-26T12:49:04.043Z,1.10
2019-06-26T12:51:30.101Z,1.10
2019-06-26T12:53:58.434Z,0.93
2019-06-26T12:56:24.021Z,1.07
2019-06-26T12:58:50.054Z,0.90
2019-06-26T13:01:15.967Z,1.00
2019-06-26T13:03:41.995Z,1.10
2019-06-26T13:06:08.315Z,1.00
2019-06-26T13:08:34.273Z,1.00
2019-06-26T13:11:00.346Z,1.00
2019-06-26T13:13:26.284Z,1.00
2019-06-26T13:15:52.301Z,1.20
2019-06-26T13:18:18.301Z,1.07
2019-06-26T13:20:52.894Z,1.10
2019-06-26T13:23:14.772Z,0.90
2019-06-26T13:25:40.282Z,0.90
2019-06-26T13:28:06.368Z,1.23
2019-06-26T13:30:36.889Z,0.97
2019-06-26T13:33:03.259Z,1.00
2019-06-26T13:35:29.180Z,1.10
2019-06-26T13:37:55.091Z,0.80
2019-06-26T13:40:21.218Z,1.03
2019-06-26T13:42:47.243Z,1.00
2019-06-26T13:45:13.436Z,1.00
2019-06-26T13:47:39.574Z,1.00
2019-06-26T13:50:06.191Z,1.30
2019-06-26T13:52:32.196Z,0.90
2019-06-26T13:54:58.210Z,1.07
2019-06-26T13:57:24.153Z,0.90
2019-06-26T13:59:50.061Z,0.97
2019-06-26T14:02:18.944Z,1.00
2019-06-26T14:04:43.932Z,0.70
2019-06-26T14:07:09.939Z,0.97
2019-06-26T14:09:35.959Z,0.90
2019-06-26T14:12:02.092Z,0.80
2019-06-26T14:14:41.036Z,1.00
2019-06-26T14:16:55.971Z,1.10
2019-06-26T14:19:22.119Z,0.83
2019-06-26T14:21:48.029Z,1.00
2019-06-26T14:24:14.026Z,0.80
2019-06-26T14:26:39.993Z,0.90
2019-06-26T14:29:20.063Z,0.90
2019-06-26T14:31:34.167Z,0.83
2019-06-26T14:34:00.113Z,1.27
2019-06-26T14:36:26.033Z,0.97
2019-06-26T14:38:52.200Z,0.93
2019-06-26T14:41:18.219Z,0.90
2019-06-26T14:43:44.140Z,0.77
2019-06-26T14:46:10.375Z,1.00
2019-06-26T14:48:36.428Z,0.80
2019-06-26T14:51:02.462Z,1.00
2019-06-26T14:53:28.652Z,0.73
2019-06-26T14:55:54.596Z,1.10
2019-06-26T14:58:20.718Z,1.07
2019-06-26T15:00:47.094Z,0.93
2019-06-26T15:03:13.119Z,0.90
2019-06-26T15:05:39.142Z,0.93
2019-06-26T15:08:05.415Z,1.00
2019-06-26T15:10:31.426Z,1.20
2019-06-26T15:12:57.440Z,1.40
2019-06-26T15:15:23.581Z,1.00
2019-06-26T15:17:49.481Z,1.00
2019-06-26T15:20:16.108Z,1.23
2019-06-26T15:22:42.268Z,0.83
2019-06-26T15:25:08.375Z,1.20
2019-06-26T15:27:34.403Z,0.97
2019-06-26T15:30:00.488Z,1.10
2019-06-26T15:32:26.374Z,0.83
2019-06-26T15:34:52.399Z,1.07
2019-06-26T15:37:18.392Z,1.20
2019-06-26T15:39:44.287Z,1.20
2019-06-26T15:42:10.195Z,1.27
2019-06-26T15:44:36.207Z,0.83
2019-06-26T15:47:02.375Z,1.10
2019-06-26T15:49:28.605Z,1.10
2019-06-26T15:51:54.672Z,1.00
2019-06-26T15:54:20.626Z,1.20
2019-06-26T15:56:46.577Z,1.03
2019-06-26T15:59:12.756Z,1.30
2019-06-26T16:01:38.868Z,1.00
2019-06-26T16:04:04.875Z,1.20
2019-06-26T16:06:31.921Z,0.93
2019-06-26T16:08:57.888Z,1.13
2019-06-26T16:11:24.185Z,1.10
2019-06-26T16:13:50.251Z,1.40
2019-06-26T16:16:16.359Z,1.20
2019-06-26T16:18:45.292Z,1.00
2019-06-26T16:21:11.337Z,1.00
2019-06-26T16:23:37.239Z,1.20
2019-06-26T16:26:03.574Z,1.20
2019-06-26T16:28:29.563Z,1.20
2019-06-26T16:30:55.487Z,1.30
2019-06-26T16:33:21.422Z,1.30
2019-06-26T16:35:48.033Z,1.37
2019-06-26T16:38:13.912Z,1.27
2019-06-26T16:40:40.139Z,1.20
2019-06-26T16:43:06.302Z,1.07
2019-06-26T16:45:32.293Z,1.10
2019-06-26T16:47:58.252Z,1.20
2019-06-26T16:50:24.411Z,0.97
2019-06-26T16:52:50.442Z,1.47
2019-06-26T16:55:16.460Z,1.40
2019-06-26T16:57:42.654Z,1.20
2019-06-26T17:00:10.226Z,1.00
2019-06-26T17:02:36.516Z,1.00
2019-06-26T17:05:04.082Z,1.33
2019-06-26T17:07:30.166Z,1.20
2019-06-26T17:09:56.119Z,0.83
2019-06-26T17:12:22.210Z,1.00
2019-06-26T17:14:48.118Z,1.13
2019-06-26T17:17:14.155Z,1.00
2019-06-26T17:19:40.451Z,1.00
2019-06-26T17:22:06.356Z,1.20
2019-06-26T17:24:32.274Z,0.97
2019-06-26T17:26:59.569Z,0.93
2019-06-26T17:29:25.699Z,1.07
2019-06-26T17:31:51.757Z,0.73
2019-06-26T17:34:17.915Z,0.83
2019-06-26T17:36:44.086Z,0.87
2019-06-26T17:39:10.113Z,0.90
2019-06-26T17:41:36.281Z,0.80
2019-06-26T17:44:02.503Z,1.07
2019-06-26T17:46:28.559Z,0.90
2019-06-26T17:48:54.543Z,1.00
2019-06-26T17:51:20.654Z,1.00
2019-06-26T17:53:46.579Z,0.97
2019-06-26T17:56:12.748Z,0.90
2019-06-26T17:58:38.656Z,0.90
2019-06-26T18:01:04.582Z,0.90
2019-06-26T18:03:30.572Z,0.90
2019-06-26T18:05:56.475Z,0.90
2019-06-26T18:08:22.399Z,0.90
2019-06-26T18:10:48.576Z,0.90
2019-06-26T18:13:14.479Z,0.93
2019-06-26T18:15:40.388Z,1.10
2019-06-26T18:18:06.575Z,0.90
2019-06-26T18:20:32.489Z,1.00
2019-06-26T18:23:06.899Z,0.90
2019-06-26T18:25:26.368Z,0.90
2019-06-26T18:27:52.271Z,0.90
2019-06-26T18:30:22.462Z,1.00
2019-06-26T18:32:46.910Z,1.00
2019-06-26T18:35:12.919Z,1.10
2019-06-26T18:37:38.839Z,1.10
2019-06-26T18:40:06.985Z,1.10
2019-06-26T18:42:33.099Z,1.10
2019-06-26T18:44:59.031Z,1.00
2019-06-26T18:47:25.116Z,1.00
2019-06-26T18:49:51.109Z,0.90
2019-06-26T18:52:17.031Z,1.17
2019-06-26T18:54:43.076Z,1.10
2019-06-26T18:57:08.978Z,1.20
2019-06-26T18:59:34.936Z,1.10
2019-06-26T19:02:01.105Z,1.10
2019-06-26T19:04:27.022Z,1.07
2019-06-26T19:06:52.980Z,1.17
2019-06-26T19:09:18.984Z,1.13
2019-06-26T19:11:45.004Z,1.20
2019-06-26T19:14:11.018Z,1.13
2019-06-26T19:16:37.104Z,0.80
2019-06-26T19:19:03.215Z,1.30
2019-06-26T19:21:29.174Z,1.50
2019-06-26T19:24:09.065Z,1.40
2019-06-26T19:26:23.134Z,1.40
2019-06-26T19:28:49.090Z,1.20
2019-06-26T19:31:15.164Z,1.03
2019-06-26T19:33:41.080Z,1.47
2019-06-26T19:36:07.116Z,1.30
2019-06-26T19:38:33.305Z,1.17
2019-06-26T19:40:59.200Z,1.23
2019-06-26T19:43:25.106Z,1.10
2019-06-26T19:45:51.315Z,1.10
2019-06-26T19:48:17.340Z,1.00
2019-06-26T19:50:43.508Z,1.30
2019-06-26T19:53:09.586Z,1.00
2019-06-26T19:55:35.587Z,1.30
2019-06-26T19:58:01.451Z,1.23
2019-06-26T20:00:27.631Z,1.30
2019-06-26T20:02:53.744Z,1.13
2019-06-26T20:05:19.915Z,1.20
2019-06-26T20:07:46.623Z,1.20
2019-06-26T20:10:13.379Z,1.20
2019-06-26T20:12:39.423Z,1.27
2019-06-26T20:15:05.929Z,1.40
2019-06-26T20:17:31.838Z,1.27
2019-06-26T20:19:57.746Z,1.33
2019-06-26T20:22:23.969Z,1.17
2019-06-26T20:24:49.869Z,1.40
2019-06-26T20:27:15.879Z,1.47
2019-06-26T20:29:41.989Z,1.20
2019-06-26T20:32:08.214Z,1.20
2019-06-26T20:34:34.282Z,1.40
2019-06-26T20:37:00.552Z,1.50
2019-06-26T20:39:26.469Z,1.40
2019-06-26T20:41:52.408Z,1.50
2019-06-26T20:44:18.502Z,1.30
2019-06-26T20:46:44.508Z,1.40
2019-06-26T20:49:10.448Z,1.30
2019-06-26T20:51:36.547Z,1.20
2019-06-26T20:54:02.659Z,1.60
2019-06-26T20:56:28.952Z,1.40
2019-06-26T20:58:54.937Z,1.20
2019-06-26T21:01:20.841Z,1.30
2019-06-26T21:03:46.779Z,1.60
2019-06-26T21:06:12.829Z,1.13
2019-06-26T21:08:38.722Z,1.47
2019-06-26T21:11:04.743Z,1.47
2019-06-26T21:13:30.823Z,1.30
2019-06-26T21:15:56.954Z,1.37
2019-06-26T21:18:22.960Z,1.20
2019-06-26T21:20:49.022Z,1.27
2019-06-26T21:23:18.910Z,1.10
2019-06-26T21:25:42.832Z,0.90
2019-06-26T21:28:09.005Z,1.10
2019-06-26T21:30:35.040Z,0.70
2019-06-26T21:33:01.021Z,0.90
2019-06-26T21:35:27.191Z,0.83
2019-06-26T21:37:53.131Z,0.73
2019-06-26T21:40:19.027Z,0.77
2019-06-26T21:42:45.193Z,0.70
2019-06-26T21:45:11.628Z,0.60
2019-06-26T21:47:37.632Z,0.60
2019-06-26T21:50:04.633Z,0.60
2019-06-26T21:52:30.769Z,0.50
2019-06-26T21:54:56.661Z,0.70
2019-06-26T21:57:22.877Z,0.57
2019-06-26T21:59:49.049Z,0.53
2019-06-26T22:02:15.152Z,0.60
2019-06-26T22:04:41.512Z,0.70
2019-06-26T22:07:07.448Z,0.60
2019-06-26T22:09:33.445Z,0.50
2019-06-26T22:12:00.862Z,0.60
2019-06-26T22:14:26.974Z,0.70
2019-06-26T22:16:53.106Z,0.60
2019-06-26T22:19:19.122Z,0.50
2019-06-26T22:21:45.201Z,0.50
2019-06-26T22:24:11.089Z,0.57
2019-06-26T22:26:37.102Z,0.73
2019-06-26T22:29:03.236Z,0.70
2019-06-26T22:31:29.259Z,0.70
2019-06-26T22:33:55.312Z,0.60
2019-06-26T22:36:21.264Z,0.63
2019-06-26T22:38:47.278Z,0.70
2019-06-26T22:41:13.294Z,0.60
2019-06-26T22:43:39.348Z,0.57
2019-06-26T22:46:05.364Z,0.70
2019-06-26T22:48:31.386Z,0.60
2019-06-26T22:50:57.336Z,0.43
2019-06-26T22:53:23.254Z,0.50
2019-06-26T22:55:49.289Z,0.90
2019-06-26T22:58:15.317Z,0.53
2019-06-26T23:00:41.427Z,0.60
2019-06-26T23:03:07.442Z,0.63
2019-06-26T23:05:33.385Z,0.70
2019-06-26T23:07:59.424Z,0.50
2019-06-26T23:10:25.692Z,0.60
2019-06-26T23:12:51.740Z,0.50
2019-06-26T23:15:18.042Z,0.43
2019-06-26T23:17:44.352Z,0.67
2019-06-26T23:20:10.613Z,0.53
2019-06-26T23:22:36.645Z,0.60
2019-06-26T23:25:05.567Z,0.70
2019-06-26T23:27:31.616Z,0.53
2019-06-26T23:29:57.526Z,0.30
2019-06-26T23:32:23.526Z,0.50
2019-06-26T23:34:49.484Z,0.50
2019-06-26T23:37:15.522Z,0.47
2019-06-26T23:39:41.535Z,0.60
2019-06-26T23:42:07.610Z,0.50
2019-06-26T23:44:33.648Z,0.40
2019-06-26T23:46:59.662Z,0.50
2019-06-26T23:49:25.721Z,0.50
2019-06-26T23:51:51.759Z,0.40
2019-06-26T23:54:17.989Z,0.90
2019-06-26T23:56:44.038Z,0.60
2019-06-26T23:59:09.968Z,0.60
